ADDS - METARS form results

Aviation Digital Data Service (ADDS)

Output produced by METARs form (1056 UTC 26 October 2020)
found at http://aviationweather.gov/metar/data/
 
METAR text: KC09 261035Z AUTO 35005KT 5SM -RA OVC008 02/01 A3021 RMK AO2 T00150010
Conditions at: KC09 (MORRIS-WASHBURN , IL, US) observed 1035 UTC 26 October 2020
Temperature: 1.5°C (35°F)
Dewpoint: 1.0°C (34°F) [RH = 96%]
Pressure (altimeter): 30.21 inches Hg (1023.1 mb)
Winds: from the N (350 degrees) at 6 MPH (5 knots; 2.6 m/s)
Visibility: 5 miles ( 8 km)
Ceiling: 800 feet AGL
Clouds: overcast cloud deck at 800 feet AGL
Weather: -RA  (light rain)

METAR text: KC09 261015Z AUTO 01005KT 10SM -DZ BKN008 OVC019 02/01 A3018 RMK AO2 T00170010
Conditions at: KC09 (MORRIS-WASHBURN , IL, US) observed 1015 UTC 26 October 2020
Temperature: 1.7°C (35°F)
Dewpoint: 1.0°C (34°F) [RH = 95%]
Pressure (altimeter): 30.18 inches Hg (1022.1 mb)
Winds: from the N (10 degrees) at 6 MPH (5 knots; 2.6 m/s)
Visibility: 10 or more miles (16+ km)
Ceiling: 800 feet AGL
Clouds: broken clouds at 800 feet AGL
overcast cloud deck at 1900 feet AGL
Weather: -DZ  (light drizzle)